Time;durP1;ratioP1;P1;durP2;ratioP2;P2;SDS_P1;SDS_P2;PMS_P1;PMS_P2;Temp;Humidity;BMP_temperature;BMP_pressure;BME280_temperature;BME280_humidity;BME280_pressure;Samples;Min_cycle;Max_cycle;Signal;HPM_P1;HPM_P2
2021/12/21 00:01:16;;;;;;;1999.90;999.90;;;;;;;-4.23;59.90;102311.88;5025425;27;97638;-72
2021/12/21 00:03:43;;;;;;;1999.90;999.90;;;;;;;-4.20;60.13;102311.25;5027729;27;98803;-72
2021/12/21 00:06:11;;;;;;;1999.90;999.90;;;;;;;-4.21;59.87;102318.16;5025516;27;97135;-72
2021/12/21 00:08:40;;;;;;;1999.90;999.90;;;;;;;-4.21;59.98;102315.56;5029003;27;97202;-72
2021/12/21 00:11:16;;;;;;;1999.90;999.90;;;;;;;-4.21;59.84;102310.34;5030184;27;98050;-72
2021/12/21 00:13:59;;;;;;;1999.90;999.90;;;;;;;-4.22;59.77;102302.38;5030863;27;97578;-72
2021/12/21 00:16:47;;;;;;;1999.90;999.90;;;;;;;-4.24;59.95;102304.81;5010906;27;98502;-72
2021/12/21 00:19:38;;;;;;;1999.90;999.90;;;;;;;-4.22;60.05;102307.56;5025995;27;96827;-72
2021/12/21 00:22:17;;;;;;;1999.90;999.90;;;;;;;-4.21;59.89;102305.16;5024295;27;101630;-72
2021/12/21 00:24:48;;;;;;;1999.90;999.90;;;;;;;-4.19;59.70;102301.00;5027907;27;100809;-72
2021/12/21 00:27:17;;;;;;;1999.90;999.90;;;;;;;-4.18;59.56;102305.47;5021155;27;98572;-72
2021/12/21 00:29:45;;;;;;;1999.90;999.90;;;;;;;-4.20;59.83;102303.44;5026819;27;97733;-72
2021/12/21 00:32:13;;;;;;;1999.90;999.90;;;;;;;-4.23;59.79;102301.47;5025024;27;96886;-72
2021/12/21 00:34:41;;;;;;;1999.90;999.90;;;;;;;-4.25;60.11;102297.78;5022161;27;99328;-72
2021/12/21 00:37:09;;;;;;;1999.90;999.90;;;;;;;-4.29;60.28;102295.63;5022402;27;97856;-72
2021/12/21 00:39:36;;;;;;;1999.90;999.90;;;;;;;-4.32;59.99;102292.72;5019612;27;96786;-72
2021/12/21 00:42:07;;;;;;;1999.90;999.90;;;;;;;-4.34;60.33;102286.44;5027526;27;99471;-72
2021/12/21 00:44:34;;;;;;;1999.90;999.90;;;;;;;-4.36;60.42;102293.16;5009972;27;99633;-72
2021/12/21 00:47:02;;;;;;;1999.90;999.90;;;;;;;-4.38;60.41;102289.47;5024918;27;98352;-72
2021/12/21 00:49:30;;;;;;;1999.90;999.90;;;;;;;-4.39;60.55;102287.63;5023268;27;99945;-72
2021/12/21 00:51:58;;;;;;;1999.90;999.90;;;;;;;-4.38;60.40;102291.16;5023463;27;98938;-72
2021/12/21 00:54:26;;;;;;;1999.90;999.90;;;;;;;-4.36;60.68;102292.22;5026793;27;97887;-72
2021/12/21 00:56:54;;;;;;;1999.90;999.90;;;;;;;-4.33;60.46;102292.53;5026294;27;98571;-72
2021/12/21 00:59:23;;;;;;;1999.90;999.90;;;;;;;-4.30;60.41;102288.59;5025997;27;97045;-72
2021/12/21 01:01:50;;;;;;;1999.90;999.90;;;;;;;-4.27;60.33;102285.38;5022127;27;97661;-73
2021/12/21 01:04:23;;;;;;;1999.90;999.90;;;;;;;-4.24;60.35;102290.94;5021821;27;97617;-72
2021/12/21 01:06:59;;;;;;;1999.90;999.90;;;;;;;-4.21;60.27;102293.81;5021269;27;98013;-73
2021/12/21 01:09:54;;;;;;;1999.90;999.90;;;;;;;-4.22;59.89;102291.97;5024586;27;96994;-71
2021/12/21 01:12:35;;;;;;;1999.90;999.90;;;;;;;-4.23;60.22;102295.34;5023379;27;99650;-73
2021/12/21 01:15:15;;;;;;;1999.90;999.90;;;;;;;-4.25;60.09;102290.00;5026037;27;97734;-72
2021/12/21 01:17:51;;;;;;;1999.90;999.90;;;;;;;-4.26;60.26;102292.44;5016898;27;97650;-72
2021/12/21 01:20:35;;;;;;;1999.90;999.90;;;;;;;-4.25;60.04;102300.38;5035355;27;97534;-72
2021/12/21 01:23:27;;;;;;;1999.90;999.90;;;;;;;-4.28;59.90;102293.97;5031789;27;97567;-71
2021/12/21 01:26:02;;;;;;;1999.90;999.90;;;;;;;-4.32;60.02;102303.13;5016000;27;98734;-72
2021/12/21 01:28:38;;;;;;;1999.90;999.90;;;;;;;-4.34;60.01;102291.63;5032137;27;97145;-72
2021/12/21 01:31:20;;;;;;;1999.90;999.90;;;;;;;-4.36;60.02;102293.16;5034562;27;98543;-72
2021/12/21 01:33:59;;;;;;;1999.90;999.90;;;;;;;-4.38;60.14;102289.47;5033738;27;97767;-72
2021/12/21 01:36:34;;;;;;;1999.90;999.90;;;;;;;-4.38;59.95;102289.47;5034949;27;99392;-73
2021/12/21 01:39:10;;;;;;;1999.90;999.90;;;;;;;-4.39;60.11;102285.03;5032620;27;97547;-72
2021/12/21 01:41:44;;;;;;;1999.90;999.90;;;;;;;-4.34;59.89;102278.66;5030927;27;97045;-73
2021/12/21 01:44:25;;;;;;;1999.90;999.90;;;;;;;-4.36;59.66;102282.75;5033939;27;97788;-73
2021/12/21 01:49:40;;;;;;;1999.90;999.90;;;;;;;-4.39;60.01;102276.34;5029098;27;98565;-73
2021/12/21 01:52:12;;;;;;;1999.90;999.90;;;;;;;-4.39;59.92;102269.44;5013160;27;97486;-72
2021/12/21 01:54:39;;;;;;;1999.90;999.90;;;;;;;-4.40;59.87;102270.22;5033818;27;98779;-72
2021/12/21 01:57:08;;;;;;;1999.90;999.90;;;;;;;-4.41;59.97;102263.19;5029278;27;99195;-72
2021/12/21 01:59:38;;;;;;;1999.90;999.90;;;;;;;-4.45;59.68;102261.03;5029486;27;98166;-73
2021/12/21 02:02:08;;;;;;;1999.90;999.90;;;;;;;-4.49;60.11;102256.25;5012232;27;97057;-72
2021/12/21 02:04:36;;;;;;;1999.90;999.90;;;;;;;-4.49;60.13;102257.94;5034234;27;98253;-72
2021/12/21 02:07:05;;;;;;;1999.90;999.90;;;;;;;-4.52;60.18;102261.16;5031934;27;99835;-71
2021/12/21 02:09:37;;;;;;;1999.90;999.90;;;;;;;-4.54;60.08;102254.88;5032218;27;97927;-71
2021/12/21 02:12:06;;;;;;;1999.90;999.90;;;;;;;-4.55;60.07;102254.72;5033774;27;97887;-72
2021/12/21 02:14:34;;;;;;;1999.90;999.90;;;;;;;-4.56;60.25;102250.25;5032052;27;99540;-71
2021/12/21 02:17:20;;;;;;;1999.90;999.90;;;;;;;-4.58;60.09;102251.78;5032344;27;99425;-72
2021/12/21 02:20:07;;;;;;;1999.90;999.90;;;;;;;-4.62;60.05;102247.94;5032937;27;96865;-72
2021/12/21 02:22:39;;;;;;;1999.90;999.90;;;;;;;-4.61;60.19;102246.28;5032331;27;97438;-72
2021/12/21 02:25:32;;;;;;;1999.90;999.90;;;;;;;-4.62;60.07;102240.16;5034081;27;97754;-72
2021/12/21 02:28:10;;;;;;;1999.90;999.90;;;;;;;-4.65;60.36;102242.44;5027144;27;99144;-72
2021/12/21 02:30:41;;;;;;;1999.90;999.90;;;;;;;-4.65;60.53;102239.84;5026253;27;97585;-72
2021/12/21 02:33:09;;;;;;;1999.90;999.90;;;;;;;-4.63;60.45;102242.59;5012974;27;98335;-72
2021/12/21 02:35:39;;;;;;;1999.90;999.90;;;;;;;-4.62;60.50;102242.75;5030921;27;100741;-73
2021/12/21 02:38:07;;;;;;;1999.90;999.90;;;;;;;-4.59;60.44;102244.75;5030230;27;97933;-72
2021/12/21 02:40:35;;;;;;;1999.90;999.90;;;;;;;-4.57;60.50;102238.94;5034371;27;97152;-72
2021/12/21 02:43:04;;;;;;;1999.90;999.90;;;;;;;-4.54;60.54;102235.75;5030905;27;97352;-73
2021/12/21 02:45:33;;;;;;;1999.90;999.90;;;;;;;-4.54;60.52;102247.09;5014326;27;99228;-71
2021/12/21 02:48:00;;;;;;;1999.90;999.90;;;;;;;-4.50;60.57;102232.72;5016578;27;100606;-72
2021/12/21 02:50:28;;;;;;;1999.90;999.90;;;;;;;-4.48;60.20;102232.09;5038227;27;98332;-72
2021/12/21 02:52:59;;;;;;;1999.90;999.90;;;;;;;-4.48;60.17;102237.31;5034811;27;101348;-71
2021/12/21 02:55:27;;;;;;;1999.90;999.90;;;;;;;-4.51;60.30;102233.47;5029374;27;100889;-72
2021/12/21 02:57:57;;;;;;;1999.90;999.90;;;;;;;-4.54;60.25;102234.09;5026438;27;98570;-71
2021/12/21 03:00:25;;;;;;;1999.90;999.90;;;;;;;-4.55;60.25;102232.25;5028349;27;97233;-71
2021/12/21 03:02:53;;;;;;;1999.90;999.90;;;;;;;-4.54;60.21;102233.16;5007135;27;97870;-71
2021/12/21 03:05:21;;;;;;;1999.90;999.90;;;;;;;-4.55;60.52;102227.03;5029318;27;99485;-70
2021/12/21 03:08:06;;;;;;;1999.90;999.90;;;;;;;-4.54;60.25;102231.50;5025588;27;98478;-71
2021/12/21 03:10:36;;;;;;;1999.90;999.90;;;;;;;-4.62;60.32;102224.56;5029077;27;96829;-72
2021/12/21 03:15:50;;;;;;;1999.90;999.90;;;;;;;-4.64;60.48;102225.19;5030290;27;97927;-73
2021/12/21 03:18:17;;;;;;;1999.90;999.90;;;;;;;-4.65;60.62;102229.47;5028244;27;98646;-72
2021/12/21 03:20:45;;;;;;;1999.90;999.90;;;;;;;-4.65;60.43;102236.31;5031488;27;97166;-72
2021/12/21 03:23:13;;;;;;;1999.90;999.90;;;;;;;-4.66;60.50;102230.19;5030454;27;96988;-74
2021/12/21 03:25:42;;;;;;;1999.90;999.90;;;;;;;-4.69;60.79;102226.38;5030528;27;98158;-71
2021/12/21 03:28:10;;;;;;;1999.90;999.90;;;;;;;-4.70;60.56;102230.66;5025460;27;98173;-72
2021/12/21 03:30:37;;;;;;;1999.90;999.90;;;;;;;-4.71;60.50;102234.00;5029311;27;97153;-72
2021/12/21 03:33:05;;;;;;;1999.90;999.90;;;;;;;-4.72;60.54;102239.03;5026835;27;100739;-71
2021/12/21 03:35:33;;;;;;;1999.90;999.90;;;;;;;-4.73;60.54;102237.19;5024226;27;100072;-71
2021/12/21 03:38:00;;;;;;;1999.90;999.90;;;;;;;-4.74;60.61;102236.28;5026383;27;98224;-73
2021/12/21 03:40:32;;;;;;;1999.90;999.90;;;;;;;-4.76;60.62;102235.22;5028819;27;96964;-72
2021/12/21 03:43:01;;;;;;;1999.90;999.90;;;;;;;-4.78;60.59;102228.00;5023219;27;97467;-72
2021/12/21 03:45:32;;;;;;;1999.90;999.90;;;;;;;-4.81;60.61;102236.41;5027991;27;98827;-72
2021/12/21 03:48:00;;;;;;;1999.90;999.90;;;;;;;-4.81;60.58;102235.47;5027412;27;100362;-73
2021/12/21 03:50:28;;;;;;;1999.90;999.90;;;;;;;-4.82;60.63;102234.56;5030651;27;99137;-72
2021/12/21 03:52:55;;;;;;;1999.90;999.90;;;;;;;-4.83;60.68;102237.94;5008972;27;98054;-72
2021/12/21 03:55:23;;;;;;;1999.90;999.90;;;;;;;-4.83;60.68;102245.72;5007559;27;99403;-71
2021/12/21 03:57:51;;;;;;;1999.90;999.90;;;;;;;-4.84;60.43;102241.25;5027041;27;98986;-71
2021/12/21 04:00:22;;;;;;;1999.90;999.90;;;;;;;-4.85;60.16;102239.44;5025504;27;98871;-71
2021/12/21 04:02:50;;;;;;;1999.90;999.90;;;;;;;-4.88;60.69;102232.22;5024973;27;97081;-71
2021/12/21 04:05:18;;;;;;;1999.90;999.90;;;;;;;-4.89;60.54;102242.47;5022200;27;98811;-72
2021/12/21 04:07:45;;;;;;;1999.90;999.90;;;;;;;-4.93;60.73;102235.09;5027436;27;100361;-72
2021/12/21 04:10:13;;;;;;;1999.90;999.90;;;;;;;-4.95;60.67;102239.22;5019908;27;97413;-72
2021/12/21 04:12:41;;;;;;;1999.90;999.90;;;;;;;-4.95;60.44;102236.63;5029306;27;97307;-71
2021/12/21 04:15:09;;;;;;;1999.90;999.90;;;;;;;-4.98;60.56;102239.81;5028759;27;97743;-72
2021/12/21 04:17:38;;;;;;;1999.90;999.90;;;;;;;-4.99;60.70;102237.06;5006215;27;98822;-72
2021/12/21 04:20:07;;;;;;;1999.90;999.90;;;;;;;-5.00;60.45;102240.41;5030199;27;97869;-73
2021/12/21 04:22:34;;;;;;;1999.90;999.90;;;;;;;-5.02;60.66;102239.31;5029597;27;96956;-72
2021/12/21 04:25:02;;;;;;;1999.90;999.90;;;;;;;-5.02;60.80;102228.94;5025265;27;99285;-72
2021/12/21 04:27:30;;;;;;;1999.90;999.90;;;;;;;-5.05;60.82;102239.00;5025413;27;99370;-72
2021/12/21 04:29:58;;;;;;;1999.90;999.90;;;;;;;-5.08;60.67;102239.59;5025060;27;98000;-72
2021/12/21 04:32:25;;;;;;;1999.90;999.90;;;;;;;-5.09;60.62;102242.97;5027813;27;97754;-72
2021/12/21 04:34:54;;;;;;;1999.90;999.90;;;;;;;-5.10;60.83;102246.28;5023373;27;97675;-72
2021/12/21 04:37:23;;;;;;;1999.90;999.90;;;;;;;-5.14;60.47;102243.22;5023190;27;98349;-73
2021/12/21 04:39:57;;;;;;;1999.90;999.90;;;;;;;-5.16;60.75;102245.66;5030125;27;97135;-72
2021/12/21 04:42:25;;;;;;;1999.90;999.90;;;;;;;-5.18;60.53;102235.88;5027945;27;98737;-72
2021/12/21 04:44:53;;;;;;;1999.90;999.90;;;;;;;-5.19;60.73;102239.22;5020123;27;97916;-72
2021/12/21 04:47:21;;;;;;;1999.90;999.90;;;;;;;-5.22;60.74;102234.63;5042371;27;98657;-72
2021/12/21 04:49:49;;;;;;;1999.90;999.90;;;;;;;-5.23;60.65;102231.88;5026392;27;98512;-73
2021/12/21 04:52:18;;;;;;;1999.90;999.90;;;;;;;-5.24;60.65;102230.00;5026235;27;97975;-76
2021/12/21 04:54:46;;;;;;;1999.90;999.90;;;;;;;-5.24;60.66;102233.53;5024058;27;98246;-72
2021/12/21 04:57:13;;;;;;;1999.90;999.90;;;;;;;-5.27;60.43;102224.50;5027685;27;98441;-72
2021/12/21 04:59:41;;;;;;;1999.90;999.90;;;;;;;-5.28;60.71;102231.34;5025452;27;96828;-72
2021/12/21 05:02:09;;;;;;;1999.90;999.90;;;;;;;-5.28;60.84;102226.16;5018560;27;97493;-72
2021/12/21 05:04:38;;;;;;;1999.90;999.90;;;;;;;-5.29;60.83;102226.94;5023512;27;99184;-71
2021/12/21 05:07:06;;;;;;;1999.90;999.90;;;;;;;-5.32;60.68;102226.59;5023728;27;100554;-71
2021/12/21 05:09:42;;;;;;;1999.90;999.90;;;;;;;-5.31;60.79;102224.94;5027033;27;98203;-71
2021/12/21 05:12:12;;;;;;;1999.90;999.90;;;;;;;-5.30;61.05;102229.38;5004967;27;97358;-72
2021/12/21 05:14:40;;;;;;;1999.90;999.90;;;;;;;-5.28;60.95;102233.97;5020285;27;98666;-71
2021/12/21 05:17:08;;;;;;;1999.90;999.90;;;;;;;-5.27;60.57;102233.22;5024951;27;99354;-71
2021/12/21 05:19:36;;;;;;;1999.90;999.90;;;;;;;-5.25;60.71;102238.56;5029446;27;99026;-70
2021/12/21 05:22:04;;;;;;;1999.90;999.90;;;;;;;-5.22;60.83;102238.88;5023469;27;97271;-71
2021/12/21 05:24:32;;;;;;;1999.90;999.90;;;;;;;-5.20;60.56;102232.19;5027508;27;97901;-72
2021/12/21 05:27:01;;;;;;;1999.90;999.90;;;;;;;-5.18;60.53;102234.19;5028298;27;97995;-72
2021/12/21 05:29:31;;;;;;;1999.90;999.90;;;;;;;-5.16;60.69;102242.13;5025613;27;97207;-72
2021/12/21 05:31:59;;;;;;;1999.90;999.90;;;;;;;-5.13;60.38;102235.59;5026560;27;97804;-71
2021/12/21 05:34:27;;;;;;;1999.90;999.90;;;;;;;-5.11;60.65;102241.88;5022173;27;99622;-71
2021/12/21 05:36:55;;;;;;;1999.90;999.90;;;;;;;-5.07;60.43;102245.72;5020846;27;98908;-72
2021/12/21 05:39:25;;;;;;;1999.90;999.90;;;;;;;-5.05;60.42;102249.38;5027340;27;97644;-71
2021/12/21 05:41:55;;;;;;;1999.90;999.90;;;;;;;-5.05;60.75;102246.78;5031092;27;98813;-71
2021/12/21 05:44:25;;;;;;;1999.90;999.90;;;;;;;-5.07;60.30;102238.84;5024134;27;98022;-71
2021/12/21 05:46:55;;;;;;;1999.90;999.90;;;;;;;-5.06;60.58;102242.34;5029211;27;97586;-71
2021/12/21 05:49:23;;;;;;;1999.90;999.90;;;;;;;-5.06;60.41;102237.16;5023649;27;97231;-71
2021/12/21 05:51:50;;;;;;;1999.90;999.90;;;;;;;-5.05;60.70;102244.19;5030661;27;97558;-71
2021/12/21 05:54:18;;;;;;;1999.90;999.90;;;;;;;-5.04;60.60;102236.56;5026597;27;99033;-72
2021/12/21 05:56:46;;;;;;;1999.90;999.90;;;;;;;-5.05;60.44;102234.75;5030849;27;97551;-72
2021/12/21 05:59:14;;;;;;;1999.90;999.90;;;;;;;-5.03;60.44;102240.09;5029079;27;97206;-71
2021/12/21 06:01:43;;;;;;;1999.90;999.90;;;;;;;-5.03;60.51;102238.41;5010415;27;97343;-73
2021/12/21 06:04:11;;;;;;;1999.90;999.90;;;;;;;-5.01;60.50;102238.59;5031468;27;98866;-72
2021/12/21 06:06:39;;;;;;;1999.90;999.90;;;;;;;-4.98;60.38;102236.31;5031952;27;99991;-72
2021/12/21 06:09:09;;;;;;;1999.90;999.90;;;;;;;-4.95;60.67;102234.94;5031892;27;97517;-71
2021/12/21 06:11:44;;;;;;;1999.90;999.90;;;;;;;-4.92;60.63;102240.44;5030464;27;97219;-71
2021/12/21 06:14:22;;;;;;;1999.90;999.90;;;;;;;-4.89;60.59;102226.88;5030777;27;100588;-71
2021/12/21 06:27:54;;;;;;;1999.90;999.90;;;;;;;-4.77;60.45;102228.16;5006521;27;99129;-72
2021/12/21 06:30:21;;;;;;;1999.90;999.90;;;;;;;-4.71;60.49;102225.28;5025119;27;97149;-72
2021/12/21 06:32:51;;;;;;;1999.90;999.90;;;;;;;-4.69;60.41;102226.38;5011137;27;97905;-72
2021/12/21 06:35:19;;;;;;;1999.90;999.90;;;;;;;-4.65;60.43;102229.47;5025315;27;97945;-71
2021/12/21 06:37:47;;;;;;;1999.90;999.90;;;;;;;-4.62;60.43;102223.66;5000852;27;99493;-71
2021/12/21 06:40:17;;;;;;;1999.90;999.90;;;;;;;-4.57;60.26;102222.47;5026457;27;97538;-71
2021/12/21 06:42:48;;;;;;;1999.90;999.90;;;;;;;-4.57;60.36;102218.16;5027509;27;97104;-71
2021/12/21 06:45:28;;;;;;;1999.90;999.90;;;;;;;-4.54;60.39;102218.50;5022360;27;97131;-72
2021/12/21 06:51:14;;;;;;;1999.90;999.90;;;;;;;-4.50;60.41;102224.94;4970356;28;97069;-73
2021/12/21 06:53:44;;;;;;;1999.90;999.90;;;;;;;-4.49;60.32;102226.75;4952512;28;96888;-71
2021/12/21 06:56:12;;;;;;;1999.90;999.90;;;;;;;-4.46;60.30;102227.09;4994352;27;99553;-71
2021/12/21 06:58:40;;;;;;;1999.90;999.90;;;;;;;-4.46;60.44;102216.72;5031148;27;97627;-72
2021/12/21 07:01:08;;;;;;;1999.90;999.90;;;;;;;-4.44;60.47;102221.28;5032497;27;96877;-72
2021/12/21 07:03:39;;;;;;;1999.90;999.90;;;;;;;-4.42;60.09;102224.97;5030464;27;97853;-72
2021/12/21 07:06:07;;;;;;;1999.90;999.90;;;;;;;-4.38;60.36;102226.19;5031879;27;97939;-72
2021/12/21 07:08:45;;;;;;;1999.90;999.90;;;;;;;-4.36;60.16;102225.59;5033752;27;100326;-71
2021/12/21 07:11:19;;;;;;;1999.90;999.90;;;;;;;-4.33;60.34;102228.50;5011090;27;96902;-71
2021/12/21 07:19:19;;;;;;;1999.90;999.90;;;;;;;-4.29;60.28;102235.88;5031539;27;99400;-73
2021/12/21 07:21:46;;;;;;;1999.90;999.90;;;;;;;-4.26;60.40;102227.47;5032463;27;97025;-71
2021/12/21 07:24:14;;;;;;;1999.90;999.90;;;;;;;-4.27;60.28;102239.53;5032300;27;96877;-71
2021/12/21 07:26:42;;;;;;;1999.90;999.90;;;;;;;-4.24;60.21;102225.97;5025778;27;97906;-71
2021/12/21 07:29:09;;;;;;;1999.90;999.90;;;;;;;-4.20;60.64;102234.22;5018943;27;99240;-71
2021/12/21 07:31:37;;;;;;;1999.90;999.90;;;;;;;-4.17;60.47;102234.50;5025846;27;98265;-71
2021/12/21 07:34:06;;;;;;;1999.90;999.90;;;;;;;-4.14;60.50;102240.03;5019903;27;97604;-71
2021/12/21 07:36:35;;;;;;;1999.90;999.90;;;;;;;-4.11;60.26;102248.16;5027927;27;98058;-70
2021/12/21 07:39:06;;;;;;;1999.90;999.90;;;;;;;-4.09;60.48;102238.81;5026787;27;97686;-71
2021/12/21 07:41:34;;;;;;;1999.90;999.90;;;;;;;-4.07;60.10;102242.50;5004815;27;97544;-71
2021/12/21 07:44:02;;;;;;;1999.90;999.90;;;;;;;-4.05;60.15;102245.25;5025521;27;98214;-71
2021/12/21 07:46:30;;;;;;;1999.90;999.90;;;;;;;-4.01;59.77;102244.81;5022417;27;98972;-71
2021/12/21 07:48:58;;;;;;;1999.90;999.90;;;;;;;-3.98;59.97;102242.50;5028416;27;98713;-71
2021/12/21 07:51:26;;;;;;;1999.90;999.90;;;;;;;-3.96;60.24;102244.53;5027525;27;98580;-71
2021/12/21 07:53:56;;;;;;;1999.90;999.90;;;;;;;-3.92;60.27;102243.16;5022639;27;96972;-71
2021/12/21 07:56:24;;;;;;;1999.90;999.90;;;;;;;-3.89;60.01;102244.38;5023317;27;98248;-71
2021/12/21 07:58:52;;;;;;;1999.90;999.90;;;;;;;-3.83;59.92;102244.09;5025915;27;98181;-71
2021/12/21 08:01:20;;;;;;;1999.90;999.90;;;;;;;-3.80;59.79;102243.47;5025435;27;96829;-72
2021/12/21 08:03:49;;;;;;;1999.90;999.90;;;;;;;-3.79;60.19;102247.91;5024033;27;97571;-70
2021/12/21 08:06:17;;;;;;;1999.90;999.90;;;;;;;-3.79;59.71;102241.03;5033178;27;98832;-72
2021/12/21 08:08:48;;;;;;;1999.90;999.90;;;;;;;-3.82;60.25;102245.00;5040448;27;97497;-70
2021/12/21 08:12:10;;;;;;;1999.90;999.90;;;;;;;-3.89;60.47;102249.56;5015634;27;97492;-71
2021/12/21 08:14:06;;;;;;;1999.90;999.90;;;;;;;-3.92;60.53;102253.56;5032971;27;97807;-71
2021/12/21 08:16:34;;;;;;;1999.90;999.90;;;;;;;-3.92;60.47;102262.28;5032681;27;99691;-71
2021/12/21 08:19:03;;;;;;;1999.90;999.90;;;;;;;-3.90;60.48;102259.81;5036225;27;98469;-70
2021/12/21 08:21:31;;;;;;;1999.90;999.90;;;;;;;-3.89;60.91;102264.25;5033671;27;98255;-70
2021/12/21 08:24:00;;;;;;;1999.90;999.90;;;;;;;-3.85;60.69;102261.22;5015993;27;97537;-71
2021/12/21 08:26:30;;;;;;;1999.90;999.90;;;;;;;-3.82;60.24;102268.41;5030645;27;101298;-71
2021/12/21 08:28:58;;;;;;;1999.90;999.90;;;;;;;-3.80;60.13;102270.38;5020319;27;100308;-71
2021/12/21 08:31:27;;;;;;;1999.90;999.90;;;;;;;-3.81;60.35;102267.63;5036915;27;96929;-71
2021/12/21 08:33:55;;;;;;;1999.90;999.90;;;;;;;-3.79;60.86;102269.63;5035649;27;97840;-71
2021/12/21 08:36:24;;;;;;;1999.90;999.90;;;;;;;-3.78;60.66;102261.06;5023918;27;97683;-72
2021/12/21 08:38:52;;;;;;;1999.90;999.90;;;;;;;-3.77;60.32;102260.31;5035577;27;100149;-73
2021/12/21 08:41:21;;;;;;;1999.90;999.90;;;;;;;-3.76;60.77;102261.22;5031309;27;97107;-73
2021/12/21 08:43:50;;;;;;;1999.90;999.90;;;;;;;-3.75;60.57;102264.00;5026668;27;97373;-76
2021/12/21 08:46:18;;;;;;;1999.90;999.90;;;;;;;-3.77;60.53;102260.31;5032089;27;97564;-72
2021/12/21 08:48:46;;;;;;;1999.90;999.90;;;;;;;-3.76;60.73;102261.22;5038519;27;97778;-73
2021/12/21 08:51:14;;;;;;;1999.90;999.90;;;;;;;-3.74;60.33;102264.88;5018561;27;97115;-73
2021/12/21 08:53:42;;;;;;;1999.90;999.90;;;;;;;-3.73;60.26;102265.03;5033565;27;97759;-73
2021/12/21 08:56:10;;;;;;;1999.90;999.90;;;;;;;-3.71;60.48;102260.03;5028647;27;99797;-72
2021/12/21 08:58:38;;;;;;;1999.90;999.90;;;;;;;-3.70;60.33;102270.56;5030196;27;100420;-72
2021/12/21 09:01:07;;;;;;;1999.90;999.90;;;;;;;-3.68;60.73;102270.72;5033361;27;99462;-72
2021/12/21 09:03:35;;;;;;;1999.90;999.90;;;;;;;-3.68;60.26;102271.66;5038013;27;96915;-72
2021/12/21 09:06:03;;;;;;;1999.90;999.90;;;;;;;-3.70;60.38;102273.16;5037386;27;97876;-71
2021/12/21 09:08:30;;;;;;;1999.90;999.90;;;;;;;-3.71;60.32;102280.81;5039032;27;98282;-71
2021/12/21 09:11:03;;;;;;;1999.90;999.90;;;;;;;-3.70;60.58;102283.56;5026339;27;96938;-72
2021/12/21 09:13:31;;;;;;;1999.90;999.90;;;;;;;-3.69;60.19;102285.41;5037596;27;96889;-71
2021/12/21 09:15:59;;;;;;;1999.90;999.90;;;;;;;-3.69;60.48;102271.47;5037626;27;97889;-71
2021/12/21 09:18:29;;;;;;;1999.90;999.90;;;;;;;-3.70;60.40;102277.44;5035575;27;97683;-71
2021/12/21 09:20:56;;;;;;;1999.90;999.90;;;;;;;-3.73;60.28;102280.66;5038105;27;97002;-72
2021/12/21 09:23:26;;;;;;;1999.90;999.90;;;;;;;-3.74;60.26;102289.22;5035078;27;97437;-73
2021/12/21 09:25:54;;;;;;;1999.90;999.90;;;;;;;-3.74;60.66;102286.63;5032060;27;97058;-72
2021/12/21 09:28:22;;;;;;;1999.90;999.90;;;;;;;-3.71;60.70;102291.22;5037099;27;101243;-73
2021/12/21 09:30:50;;;;;;;1999.90;999.90;;;;;;;-3.68;60.38;102288.94;5019862;27;98097;-72
2021/12/21 09:33:18;;;;;;;1999.90;999.90;;;;;;;-3.67;60.17;102288.16;5036972;27;98779;-72
2021/12/21 09:35:49;;;;;;;1999.90;999.90;;;;;;;-3.65;60.37;102291.81;5034776;27;98384;-72
2021/12/21 09:38:16;;;;;;;1999.90;999.90;;;;;;;-3.62;60.79;102293.06;5034099;27;99076;-73
2021/12/21 09:40:45;;;;;;;1999.90;999.90;;;;;;;-3.58;60.34;102289.09;5034919;27;98252;-73
2021/12/21 09:43:13;;;;;;;1999.90;999.90;;;;;;;-3.56;60.18;102287.56;5036220;27;97105;-72
2021/12/21 09:45:41;;;;;;;1999.90;999.90;;;;;;;-3.56;60.28;102296.28;5034536;27;97999;-73
2021/12/21 09:48:09;;;;;;;1999.90;999.90;;;;;;;-3.52;60.49;102292.31;5032800;27;97780;-72
2021/12/21 09:50:37;;;;;;;1999.90;999.90;;;;;;;-3.50;60.10;102288.19;5033313;27;99055;-73
2021/12/21 09:53:06;;;;;;;1999.90;999.90;;;;;;;-3.49;60.20;102288.34;5031787;27;98581;-73
2021/12/21 09:55:34;;;;;;;1999.90;999.90;;;;;;;-3.46;60.04;102285.13;5033062;27;100478;-72
2021/12/21 09:58:02;;;;;;;1999.90;999.90;;;;;;;-3.46;60.17;102291.25;5008673;27;98161;-73
2021/12/21 10:00:32;;;;;;;1999.90;999.90;;;;;;;-3.46;60.25;102292.94;5037011;27;97324;-73
2021/12/21 10:03:04;;;;;;;1999.90;999.90;;;;;;;-3.48;60.25;102290.19;5017213;27;97001;-73
2021/12/21 10:05:36;;;;;;;1999.90;999.90;;;;;;;-3.48;59.63;102294.47;5038217;27;100497;-73
2021/12/21 10:08:08;;;;;;;1999.90;999.90;;;;;;;-3.49;60.12;102288.34;5033694;27;102247;-74
2021/12/21 10:10:38;;;;;;;1999.90;999.90;;;;;;;-3.46;59.86;102290.34;5013150;27;97578;-72
2021/12/21 10:13:13;;;;;;;1999.90;999.90;;;;;;;-3.49;59.69;102284.81;5030835;27;97786;-73
2021/12/21 10:15:44;;;;;;;1999.90;999.90;;;;;;;-3.46;60.03;102285.13;5009606;27;100392;-71
2021/12/21 10:18:12;;;;;;;1999.90;999.90;;;;;;;-3.42;60.04;102284.69;5019280;27;98485;-73
2021/12/21 10:20:43;;;;;;;1999.90;999.90;;;;;;;-3.42;60.22;102277.78;5031167;27;98698;-72
2021/12/21 10:23:14;;;;;;;1999.90;999.90;;;;;;;-3.39;60.10;102282.38;5025734;27;99245;-74
2021/12/21 10:25:45;;;;;;;1999.90;999.90;;;;;;;-3.38;59.55;102285.13;5029134;27;98751;-74
2021/12/21 10:28:24;;;;;;;1999.90;999.90;;;;;;;-3.40;59.57;102270.16;5025109;27;100395;-73
2021/12/21 10:30:53;;;;;;;1999.90;999.90;;;;;;;-3.39;60.23;102275.50;5030011;27;99713;-73
2021/12/21 10:33:22;;;;;;;1999.90;999.90;;;;;;;-3.37;59.92;102270.44;5030285;27;97254;-72
2021/12/21 10:35:50;;;;;;;1999.90;999.90;;;;;;;-3.37;60.01;102270.44;5031021;27;99418;-73
2021/12/21 10:38:31;;;;;;;1999.90;999.90;;;;;;;-3.42;59.76;102271.66;5029855;27;97627;-73
2021/12/21 10:41:05;;;;;;;1999.90;999.90;;;;;;;-3.42;59.84;102271.66;5030311;27;97820;-72
2021/12/21 10:43:33;;;;;;;1999.90;999.90;;;;;;;-3.43;60.25;102269.81;5030031;27;97296;-73
2021/12/21 10:46:02;;;;;;;1999.90;999.90;;;;;;;-3.43;59.71;102269.81;5023244;27;97744;-71
2021/12/21 10:48:35;;;;;;;1999.90;999.90;;;;;;;-3.41;60.33;102274.41;5024004;27;98827;-72
2021/12/21 10:51:04;;;;;;;1999.90;999.90;;;;;;;-3.38;60.16;102253.91;5023600;27;98135;-70
2021/12/21 10:53:53;;;;;;;1999.90;999.90;;;;;;;-3.38;59.76;102260.78;5021630;27;97887;-71
2021/12/21 10:56:22;;;;;;;1999.90;999.90;;;;;;;-3.36;59.86;102267.06;5027758;27;99426;-72
2021/12/21 10:58:50;;;;;;;1999.90;999.90;;;;;;;-3.35;60.01;102264.59;5026864;27;97784;-72
2021/12/21 11:01:44;;;;;;;1999.90;999.90;;;;;;;-3.34;59.75;102262.94;5022991;27;97969;-72
2021/12/21 11:04:14;;;;;;;1999.90;999.90;;;;;;;-3.32;59.78;102264.00;5027015;27;98998;-72
2021/12/21 11:06:48;;;;;;;1999.90;999.90;;;;;;;-3.30;59.72;102259.88;5025693;27;99683;-72
2021/12/21 11:09:17;;;;;;;1999.90;999.90;;;;;;;-3.29;59.73;102256.50;5026562;27;98923;-72
2021/12/21 11:11:49;;;;;;;1999.90;999.90;;;;;;;-3.26;60.21;102254.22;5014806;27;100324;-72
2021/12/21 11:14:18;;;;;;;1999.90;999.90;;;;;;;-3.27;60.23;102258.50;5031462;27;98100;-72
2021/12/21 11:16:48;;;;;;;1999.90;999.90;;;;;;;-3.24;59.93;102257.88;5046611;27;98999;-73
2021/12/21 11:19:19;;;;;;;1999.90;999.90;;;;;;;-3.23;60.01;102251.91;5030976;27;98032;-71
2021/12/21 11:21:48;;;;;;;1999.90;999.90;;;;;;;-3.23;59.67;102250.22;5031033;27;98088;-72
2021/12/21 11:24:19;;;;;;;1999.90;999.90;;;;;;;-3.20;59.88;102250.53;5012406;27;102023;-72
2021/12/21 11:26:48;;;;;;;1999.90;999.90;;;;;;;-3.20;60.10;102241.81;5032889;27;97827;-72